Time;durP1;ratioP1;P1;durP2;ratioP2;P2;SDS_P1;SDS_P2;PMS_P1;PMS_P2;Temp;Humidity;BMP_temperature;BMP_pressure;BME280_temperature;BME280_humidity;BME280_pressure;Samples;Min_cycle;Max_cycle;Signal;HPM_P1;HPM_P2
2023/03/25 00:01:02;;;;;;;;;;;21.20;54.80;;;;;;6152508;28;19973;-38
2023/03/25 00:04:04;;;;;;;;;;;21.70;54.70;;;;;;6151722;29;19929;-38
2023/03/25 00:07:07;;;;;;;;;;;21.10;54.60;;;;;;6152092;28;19961;-39
2023/03/25 00:10:11;;;;;;;;;;;21.20;54.60;;;;;;6152270;28;19922;-39
2023/03/25 00:13:12;;;;;;;;;;;21.80;54.80;;;;;;6151865;28;19930;-38
2023/03/25 00:16:14;;;;;;;;;;;21.30;54.80;;;;;;6151812;28;19923;-38
2023/03/25 00:19:17;;;;;;;;;;;21.20;54.50;;;;;;6151830;28;19929;-39
2023/03/25 00:22:18;;;;;;;;;;;21.30;54.70;;;;;;6150829;28;19930;-41
2023/03/25 00:25:19;;;;;;;;;;;21.20;55.30;;;;;;6151637;28;19923;-40
2023/03/25 00:28:21;;;;;;;;;;;21.40;55.40;;;;;;6150621;29;20374;-38
2023/03/25 00:31:22;;;;;;;;;;;21.20;54.80;;;;;;6152009;28;19922;-41
2023/03/25 00:34:24;;;;;;;;;;;21.20;54.80;;;;;;6151829;28;20349;-39
2023/03/25 00:37:26;;;;;;;;;;;21.30;54.90;;;;;;6151842;28;19922;-38
2023/03/25 00:40:33;;;;;;;;;;;21.20;54.80;;;;;;6151698;28;20020;-39
2023/03/25 00:43:35;;;;;;;;;;;21.60;54.80;;;;;;6150252;28;20370;-39
2023/03/25 00:46:36;;;;;;;;;;;21.40;55.00;;;;;;6151436;28;19945;-42
2023/03/25 00:49:38;;;;;;;;;;;21.20;55.00;;;;;;6151452;28;19926;-40
2023/03/25 00:52:40;;;;;;;;;;;21.30;54.90;;;;;;6151145;28;19926;-40
2023/03/25 00:55:41;;;;;;;;;;;21.60;55.10;;;;;;6151638;28;19928;-38
2023/03/25 00:58:42;;;;;;;;;;;21.20;54.60;;;;;;6150989;28;19929;-38
2023/03/25 01:01:44;;;;;;;;;;;21.10;54.90;;;;;;6150587;28;19930;-40
2023/03/25 01:04:48;;;;;;;;;;;21.10;54.80;;;;;;6150603;28;19923;-41
2023/03/25 01:07:50;;;;;;;;;;;21.30;55.00;;;;;;6151336;28;19930;-40
2023/03/25 01:10:53;;;;;;;;;;;21.10;55.10;;;;;;6150818;28;19926;-44
2023/03/25 01:13:55;;;;;;;;;;;22.10;55.50;;;;;;6150673;28;20021;-42
2023/03/25 01:16:57;;;;;;;;;;;21.40;55.00;;;;;;6151020;28;19953;-40
2023/03/25 01:20:00;;;;;;;;;;;21.40;55.00;;;;;;6149569;29;19922;-40
2023/03/25 01:23:01;;;;;;;;;;;21.30;55.00;;;;;;6150436;28;20271;-39
2023/03/25 01:26:04;;;;;;;;;;;21.10;55.00;;;;;;6151105;28;20410;-37
2023/03/25 01:29:05;;;;;;;;;;;21.20;55.00;;;;;;6150688;28;19929;-41
2023/03/25 01:32:07;;;;;;;;;;;21.00;55.00;;;;;;6150447;28;19961;-43
2023/03/25 01:35:11;;;;;;;;;;;21.20;55.10;;;;;;6150724;28;19923;-37
2023/03/25 01:38:12;;;;;;;;;;;21.10;55.00;;;;;;6150807;28;19923;-39
2023/03/25 01:41:13;;;;;;;;;;;21.30;55.10;;;;;;6150567;28;19923;-40
2023/03/25 01:44:29;;;;;;;;;;;22.00;55.60;;;;;;6150590;28;19926;-40
2023/03/25 01:47:31;;;;;;;;;;;21.10;55.00;;;;;;6150333;28;19994;-39
2023/03/25 01:50:35;;;;;;;;;;;21.30;55.20;;;;;;6150622;28;19923;-39
2023/03/25 01:53:36;;;;;;;;;;;21.20;55.10;;;;;;6150078;28;19970;-39
2023/03/25 01:56:40;;;;;;;;;;;21.00;54.90;;;;;;6150819;28;20017;-38
2023/03/25 01:59:41;;;;;;;;;;;21.10;54.90;;;;;;6150456;28;19922;-39
2023/03/25 02:02:44;;;;;;;;;;;21.00;55.10;;;;;;6149730;28;20339;-41
2023/03/25 02:05:50;;;;;;;;;;;21.10;55.00;;;;;;6149958;28;20002;-42
2023/03/25 02:08:53;;;;;;;;;;;21.10;55.00;;;;;;6148880;28;19922;-42
2023/03/25 02:11:55;;;;;;;;;;;21.10;55.00;;;;;;6150139;28;19927;-39
2023/03/25 02:14:59;;;;;;;;;;;21.70;55.40;;;;;;6149974;28;20374;-39
2023/03/25 02:18:07;;;;;;;;;;;21.10;54.90;;;;;;6150009;29;19949;-38
2023/03/25 02:21:22;;;;;;;;;;;20.90;54.80;;;;;;6150013;28;19949;-41
2023/03/25 02:24:42;;;;;;;;;;;21.00;54.90;;;;;;6149694;28;20417;-38
2023/03/25 02:27:49;;;;;;;;;;;21.50;55.10;;;;;;6150123;28;19929;-38
2023/03/25 02:31:02;;;;;;;;;;;21.20;54.90;;;;;;6150204;28;20013;-39
2023/03/25 02:34:18;;;;;;;;;;;20.90;54.90;;;;;;6150011;28;19973;-41
2023/03/25 02:37:30;;;;;;;;;;;21.20;55.00;;;;;;6149774;28;19922;-39
2023/03/25 02:40:39;;;;;;;;;;;21.10;54.90;;;;;;6149990;28;19923;-42
2023/03/25 02:43:42;;;;;;;;;;;21.10;52.40;;;;;;6149879;28;20290;-39
2023/03/25 02:46:46;;;;;;;;;;;22.10;55.60;;;;;;6153025;28;19930;-37
2023/03/25 02:49:52;;;;;;;;;;;20.90;54.90;;;;;;6153809;28;19926;-42
2023/03/25 02:52:56;;;;;;;;;;;21.00;54.90;;;;;;6153453;28;19923;-41
2023/03/25 02:56:00;;;;;;;;;;;21.40;55.20;;;;;;6153900;28;19923;-39
2023/03/25 02:59:02;;;;;;;;;;;21.20;55.20;;;;;;6153729;28;20383;-39
2023/03/25 03:02:07;;;;;;;;;;;20.90;54.90;;;;;;6154153;28;19945;-38
2023/03/25 03:05:20;;;;;;;;;;;21.00;54.90;;;;;;6153921;28;20327;-37
2023/03/25 03:08:27;;;;;;;;;;;21.30;55.00;;;;;;6153786;28;19945;-40
2023/03/25 03:11:30;;;;;;;;;;;21.00;54.80;;;;;;6153561;28;19926;-40
2023/03/25 03:14:39;;;;;;;;;;;20.90;55.00;;;;;;6153397;28;19922;-38
2023/03/25 03:17:48;;;;;;;;;;;21.40;55.00;;;;;;6154040;28;19922;-38
2023/03/25 03:20:54;;;;;;;;;;;21.00;54.80;;;;;;6153505;28;19945;-38
2023/03/25 03:23:57;;;;;;;;;;;21.00;54.90;;;;;;6153359;28;19922;-41
2023/03/25 03:27:04;;;;;;;;;;;20.90;54.80;;;;;;6153328;28;19927;-38
2023/03/25 03:30:09;;;;;;;;;;;21.00;55.10;;;;;;6153717;28;20302;-39
2023/03/25 03:33:14;;;;;;;;;;;21.40;55.30;;;;;;6168743;28;19930;-38
2023/03/25 03:36:16;;;;;;;;;;;20.90;54.80;;;;;;6152206;28;19922;-38
2023/03/25 03:39:20;;;;;;;;;;;21.00;55.00;;;;;;6153077;28;20302;-44
2023/03/25 03:42:24;;;;;;;;;;;20.90;55.00;;;;;;6151648;28;19922;-42
2023/03/25 03:45:28;;;;;;;;;;;21.10;55.20;;;;;;6151911;29;20279;-40
2023/03/25 03:48:36;;;;;;;;;;;21.60;55.30;;;;;;6153019;28;20039;-43
2023/03/25 03:51:40;;;;;;;;;;;21.00;55.00;;;;;;6152835;28;19926;-41
2023/03/25 03:54:43;;;;;;;;;;;20.80;54.90;;;;;;6153148;28;19922;-40
2023/03/25 03:57:48;;;;;;;;;;;20.90;55.00;;;;;;6152885;28;19922;-40
2023/03/25 04:00:52;;;;;;;;;;;21.40;55.40;;;;;;6152685;28;19953;-43
2023/03/25 04:03:56;;;;;;;;;;;21.30;55.20;;;;;;6152821;28;19926;-38
2023/03/25 04:07:03;;;;;;;;;;;20.80;54.90;;;;;;6152484;28;19922;-41
2023/03/25 04:10:13;;;;;;;;;;;20.80;55.00;;;;;;6152355;28;20271;-42
2023/03/25 04:13:17;;;;;;;;;;;20.90;55.00;;;;;;6152599;28;19931;-39
2023/03/25 04:16:18;;;;;;;;;;;21.00;55.20;;;;;;6152465;28;20020;-39
2023/03/25 04:19:19;;;;;;;;;;;21.30;55.10;;;;;;6152361;28;19923;-39
2023/03/25 04:22:21;;;;;;;;;;;20.90;55.10;;;;;;6152635;28;20290;-44
2023/03/25 04:25:24;;;;;;;;;;;21.00;55.10;;;;;;6152282;28;19960;-39
2023/03/25 04:28:25;;;;;;;;;;;21.00;55.10;;;;;;6152213;28;19922;-39
2023/03/25 04:31:29;;;;;;;;;;;20.80;55.00;;;;;;6152468;28;19923;-41
2023/03/25 04:34:31;;;;;;;;;;;20.90;55.00;;;;;;6150917;28;19922;-40
2023/03/25 04:37:35;;;;;;;;;;;20.90;55.10;;;;;;6152088;28;19922;-39
2023/03/25 04:40:39;;;;;;;;;;;20.90;55.00;;;;;;6152311;28;19923;-42
2023/03/25 04:43:44;;;;;;;;;;;20.80;54.90;;;;;;6151984;28;19922;-38
2023/03/25 04:46:45;;;;;;;;;;;20.80;55.10;;;;;;6151855;28;19923;-40
2023/03/25 04:49:47;;;;;;;;;;;21.70;55.40;;;;;;6151758;28;19945;-39
2023/03/25 04:52:48;;;;;;;;;;;21.10;55.20;;;;;;6152074;28;19981;-40
2023/03/25 04:55:50;;;;;;;;;;;20.70;54.80;;;;;;6150561;29;19922;-38
2023/03/25 04:58:52;;;;;;;;;;;20.80;55.10;;;;;;6151452;28;20342;-39
2023/03/25 05:01:53;;;;;;;;;;;20.80;55.00;;;;;;6151790;28;19934;-38
2023/03/25 05:05:01;;;;;;;;;;;20.90;54.50;;;;;;6151583;28;20286;-42
2023/03/25 05:08:04;;;;;;;;;;;20.80;55.00;;;;;;6150893;28;20083;-38
2023/03/25 05:11:06;;;;;;;;;;;20.70;55.00;;;;;;6151805;28;19926;-40
2023/03/25 05:14:11;;;;;;;;;;;20.70;54.90;;;;;;6151403;28;19937;-40
2023/03/25 05:17:12;;;;;;;;;;;20.90;55.10;;;;;;6151276;28;19923;-39
2023/03/25 05:20:15;;;;;;;;;;;21.60;55.40;;;;;;6151538;28;20393;-41
2023/03/25 05:23:17;;;;;;;;;;;20.80;54.90;;;;;;6151384;28;19958;-41
2023/03/25 05:26:19;;;;;;;;;;;20.80;54.90;;;;;;6151159;28;19927;-40
2023/03/25 05:29:21;;;;;;;;;;;20.60;54.90;;;;;;6151486;28;20295;-38
2023/03/25 05:32:24;;;;;;;;;;;20.70;54.90;;;;;;6151207;29;20327;-38
2023/03/25 05:35:25;;;;;;;;;;;20.80;54.50;;;;;;6151125;28;20009;-40
2023/03/25 05:38:27;;;;;;;;;;;20.90;55.10;;;;;;6151309;28;20363;-40
2023/03/25 05:41:31;;;;;;;;;;;20.80;55.10;;;;;;6150863;28;20290;-38
2023/03/25 05:44:33;;;;;;;;;;;20.70;54.90;;;;;;6150830;28;19923;-40
2023/03/25 05:47:35;;;;;;;;;;;20.70;54.90;;;;;;6151210;28;19958;-41
2023/03/25 05:50:36;;;;;;;;;;;21.50;55.40;;;;;;6150860;28;20001;-39
2023/03/25 05:53:37;;;;;;;;;;;20.60;54.70;;;;;;6150829;28;20030;-39
2023/03/25 05:56:40;;;;;;;;;;;20.70;54.90;;;;;;6151228;28;19923;-39
2023/03/25 05:59:42;;;;;;;;;;;20.80;55.00;;;;;;6150756;28;19922;-38
2023/03/25 06:02:47;;;;;;;;;;;20.60;54.80;;;;;;6150673;28;19929;-38
2023/03/25 06:05:48;;;;;;;;;;;20.80;54.80;;;;;;6150942;28;19922;-40
2023/03/25 06:08:50;;;;;;;;;;;20.60;54.90;;;;;;6151104;28;19985;-40
2023/03/25 06:11:52;;;;;;;;;;;20.70;55.00;;;;;;6150399;28;20326;-41
2023/03/25 06:14:56;;;;;;;;;;;20.70;54.80;;;;;;6150817;28;20034;-39
2023/03/25 06:17:59;;;;;;;;;;;20.70;54.80;;;;;;6150502;28;19934;-40
2023/03/25 06:21:00;;;;;;;;;;;21.40;55.10;;;;;;6152482;28;19929;-42
2023/03/25 06:24:02;;;;;;;;;;;20.80;54.90;;;;;;6154760;28;19958;-41
2023/03/25 06:27:05;;;;;;;;;;;20.70;54.70;;;;;;6154550;28;19950;-40
2023/03/25 06:30:08;;;;;;;;;;;20.70;54.60;;;;;;6153406;29;19929;-42
2023/03/25 06:33:10;;;;;;;;;;;20.60;54.60;;;;;;6153400;28;19929;-40
2023/03/25 06:36:11;;;;;;;;;;;20.60;54.60;;;;;;6154379;29;20290;-39
2023/03/25 06:39:12;;;;;;;;;;;21.20;54.90;;;;;;6168883;28;20017;-40
2023/03/25 06:42:14;;;;;;;;;;;20.80;54.80;;;;;;6154031;28;19922;-40
2023/03/25 06:45:30;;;;;;;;;;;20.60;54.50;;;;;;6154261;28;20009;-41
2023/03/25 06:48:39;;;;;;;;;;;20.70;54.70;;;;;;6153848;28;19922;-38
2023/03/25 06:51:40;;;;;;;;;;;21.50;55.00;;;;;;6153999;28;19929;-40
2023/03/25 06:54:42;;;;;;;;;;;21.10;55.00;;;;;;6154203;28;19922;-38
2023/03/25 06:57:43;;;;;;;;;;;20.70;54.60;;;;;;6154322;28;20317;-39
2023/03/25 07:00:46;;;;;;;;;;;20.70;54.60;;;;;;6153702;28;20411;-38
2023/03/25 07:03:47;;;;;;;;;;;20.60;54.60;;;;;;6153971;28;20282;-38
2023/03/25 07:06:49;;;;;;;;;;;20.60;54.30;;;;;;6153620;28;20009;-40
2023/03/25 07:09:50;;;;;;;;;;;20.90;54.70;;;;;;6153662;28;19922;-40
2023/03/25 07:12:52;;;;;;;;;;;20.70;54.50;;;;;;6153853;28;20016;-40
2023/03/25 07:15:55;;;;;;;;;;;21.10;54.10;;;;;;6153731;28;20279;-38
2023/03/25 07:18:58;;;;;;;;;;;20.60;54.30;;;;;;6153531;28;20379;-41
2023/03/25 07:21:59;;;;;;;;;;;20.70;54.50;;;;;;6153709;28;20318;-40
2023/03/25 07:25:00;;;;;;;;;;;20.90;54.60;;;;;;6153244;28;20389;-40
2023/03/25 07:28:05;;;;;;;;;;;20.50;54.30;;;;;;6152041;29;19923;-42
2023/03/25 07:31:11;;;;;;;;;;;21.00;54.30;;;;;;6153028;28;20439;-41
2023/03/25 07:34:12;;;;;;;;;;;20.80;54.30;;;;;;6153295;28;19926;-40
2023/03/25 07:37:13;;;;;;;;;;;20.70;54.30;;;;;;6153089;28;19992;-38
2023/03/25 07:40:17;;;;;;;;;;;20.60;54.30;;;;;;6153335;28;19926;-39
2023/03/25 07:43:18;;;;;;;;;;;20.70;54.10;;;;;;6152971;28;20469;-42
2023/03/25 07:46:29;;;;;;;;;;;21.40;54.60;;;;;;6152958;28;20290;-40
2023/03/25 07:49:32;;;;;;;;;;;20.60;54.20;;;;;;6152480;28;19923;-41
2023/03/25 07:52:34;;;;;;;;;;;20.70;54.00;;;;;;6153024;28;19926;-43
2023/03/25 07:55:36;;;;;;;;;;;21.40;54.20;;;;;;6153145;28;19922;-39
2023/03/25 07:58:38;;;;;;;;;;;21.10;54.20;;;;;;6167879;28;19922;-41
2023/03/25 08:01:39;;;;;;;;;;;21.00;54.10;;;;;;6151573;28;19926;-39
2023/03/25 08:04:41;;;;;;;;;;;20.90;53.90;;;;;;6153377;28;19928;-40
2023/03/25 08:07:42;;;;;;;;;;;21.00;54.20;;;;;;6152478;28;19922;-42
2023/03/25 08:10:46;;;;;;;;;;;21.30;54.00;;;;;;6151277;28;19929;-39
2023/03/25 08:13:47;;;;;;;;;;;20.80;53.90;;;;;;6152292;28;19923;-38
2023/03/25 08:16:49;;;;;;;;;;;21.20;54.30;;;;;;6152294;28;20025;-38
2023/03/25 08:19:50;;;;;;;;;;;20.80;53.90;;;;;;6152493;28;20449;-38
2023/03/25 08:22:51;;;;;;;;;;;21.60;54.40;;;;;;6152309;28;19923;-37
2023/03/25 08:25:53;;;;;;;;;;;20.90;54.10;;;;;;6152193;28;19929;-38
2023/03/25 08:28:56;;;;;;;;;;;20.90;53.90;;;;;;6166762;28;19927;-40
2023/03/25 08:31:58;;;;;;;;;;;20.80;53.80;;;;;;6152400;28;20431;-38
2023/03/25 08:34:59;;;;;;;;;;;21.60;54.40;;;;;;6152346;28;19994;-38
2023/03/25 08:38:05;;;;;;;;;;;20.80;53.90;;;;;;6152295;28;19930;-39
2023/03/25 08:41:09;;;;;;;;;;;20.80;51.10;;;;;;6151075;28;19922;-39
2023/03/25 08:44:11;;;;;;;;;;;20.80;54.00;;;;;;6151150;28;19969;-43
2023/03/25 08:47:13;;;;;;;;;;;21.40;53.80;;;;;;6152165;28;19922;-39
2023/03/25 08:50:14;;;;;;;;;;;20.90;53.80;;;;;;6152084;28;20311;-40
2023/03/25 08:53:15;;;;;;;;;;;21.70;54.30;;;;;;6151817;28;19938;-40
2023/03/25 08:56:17;;;;;;;;;;;20.90;53.70;;;;;;6152146;29;19930;-39
2023/03/25 08:59:18;;;;;;;;;;;21.40;54.00;;;;;;6151912;28;19956;-38
2023/03/25 09:02:20;;;;;;;;;;;21.00;53.80;;;;;;6151519;28;19929;-44
2023/03/25 09:05:22;;;;;;;;;;;21.30;54.20;;;;;;6151906;28;20298;-39
2023/03/25 09:08:23;;;;;;;;;;;21.30;53.90;;;;;;6151590;28;20351;-41
2023/03/25 09:11:25;;;;;;;;;;;21.40;53.80;;;;;;6150067;28;19922;-40
2023/03/25 09:14:38;;;;;;;;;;;21.10;53.80;;;;;;6150413;29;20456;-38
2023/03/25 09:17:42;;;;;;;;;;;21.50;54.10;;;;;;6153323;28;19965;-38
2023/03/25 09:20:46;;;;;;;;;;;21.10;53.10;;;;;;6152862;28;19945;-41
2023/03/25 09:23:47;;;;;;;;;;;21.70;56.30;;;;;;6153496;28;19923;-43
2023/03/25 09:26:50;;;;;;;;;;;20.90;55.90;;;;;;6153580;28;19962;-40
2023/03/25 09:29:51;;;;;;;;;;;21.00;55.80;;;;;;6152396;28;19922;-38
2023/03/25 09:32:53;;;;;;;;;;;21.20;55.20;;;;;;6152751;28;19954;-43
2023/03/25 09:35:55;;;;;;;;;;;21.50;55.80;;;;;;6151982;29;20339;-38
2023/03/25 09:38:56;;;;;;;;;;;21.00;55.70;;;;;;6152235;28;19922;-38
2023/03/25 09:42:03;;;;;;;;;;;21.60;56.10;;;;;;6151819;28;19923;-43
2023/03/25 09:45:14;;;;;;;;;;;20.90;55.40;;;;;;6151448;28;19965;-39
2023/03/25 09:48:22;;;;;;;;;;;21.90;55.70;;;;;;6151425;28;19965;-39
2023/03/25 09:51:24;;;;;;;;;;;21.00;55.30;;;;;;6151278;28;19926;-40
2023/03/25 09:54:27;;;;;;;;;;;21.10;55.20;;;;;;6153392;28;19922;-42
2023/03/25 09:57:30;;;;;;;;;;;21.10;55.20;;;;;;6156343;28;19922;-39
2023/03/25 10:00:33;;;;;;;;;;;21.60;53.90;;;;;;6155040;29;20044;-42
2023/03/25 10:03:43;;;;;;;;;;;21.10;55.20;;;;;;6153994;29;20289;-39
2023/03/25 10:06:50;;;;;;;;;;;21.70;55.60;;;;;;6156051;28;20017;-39
2023/03/25 10:09:54;;;;;;;;;;;21.10;55.10;;;;;;6155749;28;19922;-40
2023/03/25 10:13:00;;;;;;;;;;;21.50;55.30;;;;;;6155808;28;19977;-41
2023/03/25 10:16:07;;;;;;;;;;;21.60;55.00;;;;;;6155804;28;20293;-41
2023/03/25 10:19:15;;;;;;;;;;;21.80;56.00;;;;;;6155241;28;19961;-42
2023/03/25 10:22:18;;;;;;;;;;;21.40;55.10;;;;;;6155491;28;20323;-46
2023/03/25 10:25:21;;;;;;;;;;;21.10;54.90;;;;;;6154824;28;19973;-41
2023/03/25 10:28:26;;;;;;;;;;;21.70;55.30;;;;;;6155397;28;20375;-42
2023/03/25 10:31:30;;;;;;;;;;;22.10;55.50;;;;;;6155251;28;20417;-40
2023/03/25 10:34:35;;;;;;;;;;;21.30;55.10;;;;;;6154848;28;19929;-40
2023/03/25 10:37:40;;;;;;;;;;;22.10;55.50;;;;;;6154742;28;19922;-40
2023/03/25 10:40:43;;;;;;;;;;;21.30;55.10;;;;;;6154836;28;19930;-42
2023/03/25 10:43:44;;;;;;;;;;;21.10;54.90;;;;;;6154633;28;20001;-39
2023/03/25 10:46:49;;;;;;;;;;;21.10;55.10;;;;;;6154629;28;19927;-41
2023/03/25 10:49:51;;;;;;;;;;;21.60;55.10;;;;;;6154548;28;20013;-42
2023/03/25 10:52:54;;;;;;;;;;;21.20;55.10;;;;;;6154548;28;19926;-42
2023/03/25 10:55:57;;;;;;;;;;;21.60;55.30;;;;;;6153967;28;19927;-39
2023/03/25 10:59:01;;;;;;;;;;;21.20;54.90;;;;;;6155213;28;19945;-41
2023/03/25 11:02:06;;;;;;;;;;;21.60;55.00;;;;;;6154838;28;19945;-44
2023/03/25 11:05:08;;;;;;;;;;;21.30;55.10;;;;;;6153019;28;19922;-40
2023/03/25 11:08:09;;;;;;;;;;;21.30;55.00;;;;;;6153782;28;19965;-41
2023/03/25 11:11:31;;;;;;;;;;;21.30;54.90;;;;;;6154435;28;19922;-39
2023/03/25 11:14:35;;;;;;;;;;;21.70;55.00;;;;;;6153081;29;20298;-44
2023/03/25 11:17:38;;;;;;;;;;;21.30;54.90;;;;;;6154384;28;19974;-46
2023/03/25 11:20:45;;;;;;;;;;;21.50;55.20;;;;;;6154047;28;19973;-43
2023/03/25 11:23:47;;;;;;;;;;;21.20;55.10;;;;;;6153890;28;19926;-44
2023/03/25 11:26:51;;;;;;;;;;;21.60;55.00;;;;;;6154082;28;19929;-44
2023/03/25 11:29:53;;;;;;;;;;;21.20;54.70;;;;;;6153941;28;20021;-43
2023/03/25 11:32:56;;;;;;;;;;;21.40;54.90;;;;;;6152798;29;19945;-44
2023/03/25 11:36:10;;;;;;;;;;;21.30;54.80;;;;;;6152829;29;19922;-44
2023/03/25 11:39:17;;;;;;;;;;;22.10;55.10;;;;;;6152550;29;19929;-38
2023/03/25 11:42:25;;;;;;;;;;;21.30;54.70;;;;;;6153446;28;19922;-38
2023/03/25 11:45:30;;;;;;;;;;;21.30;54.60;;;;;;6153692;28;19923;-41
2023/03/25 11:48:35;;;;;;;;;;;21.30;54.60;;;;;;6153153;28;19927;-45
2023/03/25 11:51:40;;;;;;;;;;;22.00;54.90;;;;;;6153885;28;19922;-41
2023/03/25 11:54:43;;;;;;;;;;;21.40;54.80;;;;;;6153457;28;20404;-44
2023/03/25 11:57:45;;;;;;;;;;;22.20;52.40;;;;;;6153226;28;19922;-40
2023/03/25 12:00:47;;;;;;;;;;;21.40;54.70;;;;;;6152362;29;19945;-40
2023/03/25 12:03:50;;;;;;;;;;;22.20;55.00;;;;;;6153039;28;20380;-42
2023/03/25 12:06:56;;;;;;;;;;;21.40;54.60;;;;;;6152287;29;19973;-41
2023/03/25 12:10:04;;;;;;;;;;;22.10;54.90;;;;;;6153428;28;19967;-43
2023/03/25 12:13:07;;;;;;;;;;;21.30;54.50;;;;;;6151666;28;19929;-40
2023/03/25 12:16:18;;;;;;;;;;;21.50;54.60;;;;;;6152916;28;19934;-44
2023/03/25 12:19:24;;;;;;;;;;;21.40;54.30;;;;;;6153180;28;19930;-44
2023/03/25 12:22:35;;;;;;;;;;;22.20;54.80;;;;;;6153126;28;20381;-42
2023/03/25 12:25:43;;;;;;;;;;;21.40;54.30;;;;;;6152731;28;19973;-41
2023/03/25 12:28:59;;;;;;;;;;;21.90;54.50;;;;;;6153087;28;19945;-40
2023/03/25 12:32:05;;;;;;;;;;;21.80;54.50;;;;;;6151741;28;19922;-45
2023/03/25 12:35:13;;;;;;;;;;;21.90;54.60;;;;;;6152801;28;19993;-38
2023/03/25 12:38:23;;;;;;;;;;;21.50;54.30;;;;;;6152426;28;19972;-39
2023/03/25 12:41:27;;;;;;;;;;;21.40;54.30;;;;;;6152571;28;19922;-39
2023/03/25 12:44:37;;;;;;;;;;;21.30;54.20;;;;;;6152538;28;19922;-43
2023/03/25 12:47:41;;;;;;;;;;;22.30;54.70;;;;;;6152286;28;19961;-42
2023/03/25 12:50:45;;;;;;;;;;;21.40;54.30;;;;;;6151160;28;19923;-44
2023/03/25 12:53:54;;;;;;;;;;;21.50;54.30;;;;;;6152404;28;19922;-43
2023/03/25 12:57:03;;;;;;;;;;;21.50;54.30;;;;;;6152297;28;20310;-39
2023/03/25 13:00:17;;;;;;;;;;;21.90;54.40;;;;;;6152477;28;19922;-42
2023/03/25 13:03:27;;;;;;;;;;;21.50;54.30;;;;;;6152398;28;19969;-39
2023/03/25 13:06:33;;;;;;;;;;;21.50;54.30;;;;;;6151911;28;19973;-39
2023/03/25 13:09:42;;;;;;;;;;;21.50;54.30;;;;;;6152234;28;19929;-42
2023/03/25 13:12:48;;;;;;;;;;;22.20;54.60;;;;;;6152343;28;20295;-40
2023/03/25 13:15:54;;;;;;;;;;;21.50;54.00;;;;;;6150822;29;19929;-44
2023/03/25 13:19:00;;;;;;;;;;;21.40;54.00;;;;;;6152003;28;19922;-40
2023/03/25 13:22:06;;;;;;;;;;;21.60;54.00;;;;;;6152409;28;19993;-42
2023/03/25 13:25:15;;;;;;;;;;;22.20;54.30;;;;;;6151751;28;20272;-41
2023/03/25 13:28:21;;;;;;;;;;;21.60;54.00;;;;;;6150306;28;20010;-40
2023/03/25 13:31:26;;;;;;;;;;;21.70;54.10;;;;;;6151824;28;20275;-41
2023/03/25 13:34:30;;;;;;;;;;;21.60;54.60;;;;;;6151384;28;19922;-42
2023/03/25 13:37:33;;;;;;;;;;;22.50;54.40;;;;;;6151295;28;19929;-45
2023/03/25 13:40:39;;;;;;;;;;;21.70;54.20;;;;;;6151709;28;20390;-43
2023/03/25 13:43:48;;;;;;;;;;;22.10;54.80;;;;;;6151517;28;19958;-38
2023/03/25 13:46:52;;;;;;;;;;;22.10;54.10;;;;;;6150209;29;20294;-39
2023/03/25 13:49:57;;;;;;;;;;;21.50;53.90;;;;;;6151293;28;19923;-41
2023/03/25 13:53:00;;;;;;;;;;;21.80;54.00;;;;;;6151328;28;20367;-41
2023/03/25 13:56:27;;;;;;;;;;;22.30;54.10;;;;;;6151667;28;19966;-40
2023/03/25 13:59:40;;;;;;;;;;;21.70;54.00;;;;;;6151122;28;20024;-42
2023/03/25 14:02:48;;;;;;;;;;;21.40;53.80;;;;;;6150995;28;19922;-42
2023/03/25 14:05:57;;;;;;;;;;;21.70;53.90;;;;;;6151164;28;19926;-42
2023/03/25 14:09:11;;;;;;;;;;;22.50;54.30;;;;;;6150758;28;19930;-41
2023/03/25 14:12:15;;;;;;;;;;;21.70;53.90;;;;;;6151329;28;20033;-40
2023/03/25 14:15:18;;;;;;;;;;;22.10;54.20;;;;;;6150580;28;20350;-40
2023/03/25 14:18:20;;;;;;;;;;;21.70;53.80;;;;;;6150566;28;19934;-40
2023/03/25 14:21:27;;;;;;;;;;;22.10;54.00;;;;;;6150928;28;19929;-44
2023/03/25 14:24:31;;;;;;;;;;;21.70;53.70;;;;;;6149494;29;20401;-40
2023/03/25 14:27:34;;;;;;;;;;;22.70;54.20;;;;;;6151276;28;19923;-38
2023/03/25 14:30:37;;;;;;;;;;;21.80;53.90;;;;;;6151047;28;20387;-40
2023/03/25 14:33:50;;;;;;;;;;;21.70;53.90;;;;;;6150856;28;19923;-41
2023/03/25 14:37:06;;;;;;;;;;;21.80;53.60;;;;;;6150868;28;19969;-40
2023/03/25 14:40:23;;;;;;;;;;;22.30;53.60;;;;;;6150006;28;19929;-42
2023/03/25 14:43:26;;;;;;;;;;;21.80;53.60;;;;;;6153427;29;19929;-42
2023/03/25 14:46:33;;;;;;;;;;;22.20;54.00;;;;;;6152709;29;19922;-42
2023/03/25 14:49:52;;;;;;;;;;;21.80;53.70;;;;;;6154795;28;19922;-39
2023/03/25 14:52:57;;;;;;;;;;;22.30;53.90;;;;;;6154278;28;20287;-44
2023/03/25 14:56:01;;;;;;;;;;;21.60;53.60;;;;;;6154516;28;19977;-40
2023/03/25 14:59:06;;;;;;;;;;;22.40;54.00;;;;;;6154453;28;19961;-41
2023/03/25 15:02:13;;;;;;;;;;;21.70;53.50;;;;;;6152356;29;19922;-42
2023/03/25 15:05:16;;;;;;;;;;;22.40;53.90;;;;;;6154463;28;20325;-38
2023/03/25 15:08:23;;;;;;;;;;;21.80;53.60;;;;;;6154867;28;20080;-43
2023/03/25 15:11:26;;;;;;;;;;;22.20;53.70;;;;;;6153825;28;19922;-42
2023/03/25 15:14:37;;;;;;;;;;;21.70;53.50;;;;;;6154290;28;19923;-40
2023/03/25 15:17:41;;;;;;;;;;;21.60;53.50;;;;;;6153757;28;19965;-39
2023/03/25 15:20:42;;;;;;;;;;;21.80;53.50;;;;;;6153789;28;19923;-43
2023/03/25 15:23:46;;;;;;;;;;;22.20;52.80;;;;;;6153792;28;19927;-42
2023/03/25 15:26:48;;;;;;;;;;;21.80;53.40;;;;;;6153774;28;19926;-40
2023/03/25 15:29:54;;;;;;;;;;;22.30;53.70;;;;;;6153779;28;19926;-40
2023/03/25 15:33:08;;;;;;;;;;;21.70;53.30;;;;;;6153766;28;19933;-38
2023/03/25 15:36:20;;;;;;;;;;;22.10;53.20;;;;;;6152453;28;19978;-41
2023/03/25 15:39:34;;;;;;;;;;;21.70;53.20;;;;;;6153294;29;19923;-39
2023/03/25 15:42:41;;;;;;;;;;;22.50;53.70;;;;;;6153516;28;19966;-39
2023/03/25 15:45:57;;;;;;;;;;;22.10;53.40;;;;;;6152198;29;19954;-42
2023/03/25 15:49:11;;;;;;;;;;;22.70;53.50;;;;;;6152980;28;19957;-41
2023/03/25 15:52:27;;;;;;;;;;;21.80;53.00;;;;;;6152640;28;19926;-38
2023/03/25 15:55:31;;;;;;;;;;;22.20;53.30;;;;;;6153016;28;19974;-39
2023/03/25 15:58:37;;;;;;;;;;;21.90;53.00;;;;;;6153121;28;19923;-42
2023/03/25 16:01:43;;;;;;;;;;;22.30;53.10;;;;;;6152929;29;19957;-38
2023/03/25 16:04:46;;;;;;;;;;;22.10;53.10;;;;;;6153131;28;19945;-41
2023/03/25 16:07:47;;;;;;;;;;;21.90;52.80;;;;;;6152954;28;19923;-46
2023/03/25 16:10:49;;;;;;;;;;;22.00;52.70;;;;;;6152667;28;20373;-41
2023/03/25 16:14:07;;;;;;;;;;;22.60;53.30;;;;;;6153141;28;19962;-39
2023/03/25 16:17:11;;;;;;;;;;;22.00;52.80;;;;;;6151547;29;19929;-39
2023/03/25 16:20:17;;;;;;;;;;;22.60;53.00;;;;;;6151452;29;20441;-42
2023/03/25 16:23:19;;;;;;;;;;;23.10;53.30;;;;;;6152516;28;20294;-39
2023/03/25 16:26:33;;;;;;;;;;;22.00;52.80;;;;;;6152784;28;20330;-43
2023/03/25 16:29:36;;;;;;;;;;;22.30;52.90;;;;;;6152688;28;19922;-44
2023/03/25 16:32:39;;;;;;;;;;;22.90;53.30;;;;;;6151492;28;19929;-40
2023/03/25 16:35:42;;;;;;;;;;;22.00;52.90;;;;;;6152221;28;19979;-44
2023/03/25 16:38:43;;;;;;;;;;;22.00;52.70;;;;;;6152186;28;20014;-41
2023/03/25 16:41:45;;;;;;;;;;;21.90;52.80;;;;;;6152426;28;19957;-44
2023/03/25 16:44:47;;;;;;;;;;;22.80;53.20;;;;;;6151054;29;19923;-41
2023/03/25 16:47:49;;;;;;;;;;;22.30;52.60;;;;;;6152657;28;19968;-39
2023/03/25 16:50:51;;;;;;;;;;;22.00;52.70;;;;;;6152313;28;19933;-42
2023/03/25 16:53:54;;;;;;;;;;;21.90;52.50;;;;;;6152253;28;20000;-40
2023/03/25 16:56:56;;;;;;;;;;;22.90;53.10;;;;;;6150799;29;19933;-45
2023/03/25 17:00:04;;;;;;;;;;;22.10;52.70;;;;;;6152114;28;19922;-45
2023/03/25 17:03:10;;;;;;;;;;;22.00;52.50;;;;;;6150601;28;19922;-39
2023/03/25 17:06:19;;;;;;;;;;;22.10;52.70;;;;;;6151540;28;20327;-40
2023/03/25 17:09:22;;;;;;;;;;;22.80;52.90;;;;;;6152040;28;19969;-40
2023/03/25 17:12:24;;;;;;;;;;;22.40;52.70;;;;;;6150848;28;20421;-41
2023/03/25 17:15:26;;;;;;;;;;;22.90;53.00;;;;;;6151623;28;19922;-39
2023/03/25 17:18:30;;;;;;;;;;;22.00;52.40;;;;;;6152101;28;20271;-42
2023/03/25 17:21:32;;;;;;;;;;;22.10;52.50;;;;;;6151637;28;20371;-42
2023/03/25 17:24:37;;;;;;;;;;;22.10;52.40;;;;;;6150485;28;19922;-47
2023/03/25 17:27:40;;;;;;;;;;;22.90;53.40;;;;;;6152050;28;19974;-44
2023/03/25 17:30:45;;;;;;;;;;;22.20;52.40;;;;;;6151456;28;19923;-46
2023/03/25 17:33:48;;;;;;;;;;;22.20;52.50;;;;;;6150247;29;19922;-40
2023/03/25 17:36:56;;;;;;;;;;;22.10;52.40;;;;;;6150332;29;19957;-44
2023/03/25 17:40:00;;;;;;;;;;;22.60;52.70;;;;;;6150116;29;19982;-39
2023/03/25 17:43:04;;;;;;;;;;;22.20;52.50;;;;;;6151477;28;19926;-44
2023/03/25 17:46:06;;;;;;;;;;;22.90;52.80;;;;;;6151444;28;20268;-39
2023/03/25 17:49:13;;;;;;;;;;;22.20;52.50;;;;;;6151047;28;19929;-43
2023/03/25 17:52:15;;;;;;;;;;;22.40;49.70;;;;;;6149880;29;20395;-40